Time;durP1;ratioP1;P1;durP2;ratioP2;P2;SDS_P1;SDS_P2;PMS_P1;PMS_P2;Temp;Humidity;BMP_temperature;BMP_pressure;BME280_temperature;BME280_humidity;BME280_pressure;Samples;Min_cycle;Max_cycle;Signal;HPM_P1;HPM_P2
2021/01/14 00:01:00;;;;;;;7.00;3.90;;;1.60;99.90;;;;;;6955174;28;20438;-68
2021/01/14 00:04:20;;;;;;;7.17;4.13;;;1.60;99.90;;;;;;6944425;28;20397;-68
2021/01/14 00:07:42;;;;;;;6.80;3.90;;;1.50;99.90;;;;;;6933726;28;20416;-68
2021/01/14 00:11:03;;;;;;;6.03;4.00;;;1.60;99.90;;;;;;6954933;28;20812;-68
2021/01/14 00:14:24;;;;;;;5.85;3.90;;;1.60;99.90;;;;;;6940107;28;20874;-69
2021/01/14 00:17:48;;;;;;;5.95;4.00;;;1.60;99.90;;;;;;6941626;28;20879;-69
2021/01/14 00:21:08;;;;;;;6.22;3.90;;;1.70;99.90;;;;;;6947821;28;20752;-68
2021/01/14 00:24:29;;;;;;;6.20;3.70;;;1.70;99.90;;;;;;6950133;28;20904;-68
2021/01/14 00:27:51;;;;;;;6.50;4.20;;;1.80;99.90;;;;;;6946520;28;20447;-68
2021/01/14 00:31:12;;;;;;;5.23;3.50;;;1.90;99.90;;;;;;6935379;28;20401;-69
2021/01/14 00:34:33;;;;;;;4.70;3.20;;;1.90;99.90;;;;;;6940365;28;20471;-69
2021/01/14 00:37:55;;;;;;;4.72;3.30;;;1.80;99.90;;;;;;6940750;28;20457;-68
2021/01/14 00:41:16;;;;;;;4.60;3.30;;;1.80;99.90;;;;;;6947643;28;20500;-67
2021/01/14 00:44:37;;;;;;;4.80;3.00;;;1.90;99.90;;;;;;6935256;28;20550;-68
2021/01/14 00:47:59;;;;;;;4.65;2.80;;;1.90;99.90;;;;;;6940437;28;20914;-67
2021/01/14 00:51:19;;;;;;;6.03;2.97;;;1.90;99.90;;;;;;6936301;28;20401;-68
2021/01/14 00:54:40;;;;;;;6.10;3.10;;;2.00;99.90;;;;;;6934229;28;20412;-69
2021/01/14 00:58:01;;;;;;;4.63;2.80;;;2.10;99.90;;;;;;6953606;28;20501;-69
2021/01/14 01:01:22;;;;;;;5.68;2.90;;;2.10;99.90;;;;;;6949360;28;20501;-68
2021/01/14 01:04:43;;;;;;;4.50;2.70;;;2.00;99.90;;;;;;6961418;28;20451;-68
2021/01/14 01:08:04;;;;;;;4.77;3.00;;;2.10;99.90;;;;;;6942471;28;20904;-68
2021/01/14 01:11:26;;;;;;;5.07;2.88;;;2.10;99.90;;;;;;6943628;28;20878;-68
2021/01/14 01:14:47;;;;;;;5.07;3.00;;;2.10;99.90;;;;;;6938274;28;20960;-68
2021/01/14 01:18:07;;;;;;;5.43;3.20;;;2.20;99.90;;;;;;6946814;28;20393;-68
2021/01/14 01:21:28;;;;;;;5.00;3.17;;;2.10;99.90;;;;;;6953879;28;20395;-69
2021/01/14 01:24:49;;;;;;;5.68;3.60;;;2.10;99.90;;;;;;6945056;28;20405;-68
2021/01/14 01:28:10;;;;;;;5.15;3.55;;;2.20;99.90;;;;;;6982320;28;20461;-68
2021/01/14 01:31:31;;;;;;;5.22;3.72;;;2.20;99.90;;;;;;6957139;28;20401;-68
2021/01/14 01:34:52;;;;;;;5.68;3.50;;;2.20;99.90;;;;;;6937604;28;20399;-68
2021/01/14 01:38:13;;;;;;;5.93;3.60;;;2.20;99.90;;;;;;6950874;28;20413;-68
2021/01/14 01:41:34;;;;;;;6.43;3.70;;;2.30;99.90;;;;;;6961654;28;20412;-68
2021/01/14 01:44:55;;;;;;;6.47;3.70;;;2.20;99.90;;;;;;6933556;28;20405;-68
2021/01/14 01:48:17;;;;;;;7.13;4.10;;;2.20;99.90;;;;;;6944806;28;20488;-68
2021/01/14 01:51:41;;;;;;;6.38;3.70;;;2.20;99.90;;;;;;6935141;28;20453;-69
2021/01/14 01:55:04;;;;;;;7.07;3.80;;;2.40;99.90;;;;;;6931830;28;20399;-69
2021/01/14 01:58:32;;;;;;;6.00;4.00;;;2.30;99.90;;;;;;6946170;28;20883;-69
2021/01/14 02:01:53;;;;;;;7.07;4.28;;;2.30;99.90;;;;;;6956224;28;20785;-69
2021/01/14 02:05:14;;;;;;;6.60;4.28;;;2.30;99.90;;;;;;6941829;28;20400;-68
2021/01/14 02:08:47;;;;;;;7.32;4.68;;;2.30;99.90;;;;;;6934769;28;20413;-68
2021/01/14 02:12:08;;;;;;;7.38;4.38;;;2.30;99.90;;;;;;6936980;28;20488;-68
2021/01/14 02:15:32;;;;;;;6.68;4.50;;;2.30;99.90;;;;;;6934677;28;20464;-68
2021/01/14 02:18:57;;;;;;;7.65;4.60;;;2.40;99.90;;;;;;6944253;28;20574;-68
2021/01/14 02:22:37;;;;;;;7.95;4.80;;;2.40;99.90;;;;;;6951163;28;20401;-68
2021/01/14 02:26:00;;;;;;;7.70;4.70;;;2.40;99.90;;;;;;6946203;28;20400;-69
2021/01/14 02:29:21;;;;;;;7.93;4.63;;;2.30;99.90;;;;;;6962065;28;20434;-68
2021/01/14 02:32:43;;;;;;;7.93;5.13;;;2.30;99.90;;;;;;6948190;28;20747;-68
2021/01/14 02:36:05;;;;;;;8.80;4.95;;;2.30;99.90;;;;;;6947688;28;20407;-68
2021/01/14 02:39:25;;;;;;;8.00;4.90;;;2.40;99.90;;;;;;6941728;28;20409;-69
2021/01/14 02:42:46;;;;;;;8.40;5.22;;;2.40;99.90;;;;;;6953765;28;21751;-69
2021/01/14 02:46:08;;;;;;;8.57;5.30;;;2.30;99.90;;;;;;6938740;28;20417;-69
2021/01/14 02:49:33;;;;;;;8.43;5.03;;;2.30;99.90;;;;;;6947449;28;20405;-69
2021/01/14 02:52:59;;;;;;;8.05;5.10;;;2.40;99.90;;;;;;6943613;28;20411;-68
2021/01/14 02:56:22;;;;;;;8.05;5.07;;;2.40;99.90;;;;;;6947420;28;20817;-70
2021/01/14 02:59:45;;;;;;;9.05;5.40;;;2.40;99.90;;;;;;6939437;28;20415;-70
2021/01/14 03:03:05;;;;;;;8.50;5.53;;;2.40;99.90;;;;;;6950139;28;20409;-69
2021/01/14 03:06:27;;;;;;;8.75;5.65;;;2.40;99.90;;;;;;6971924;28;20433;-69
2021/01/14 03:09:47;;;;;;;8.50;5.50;;;2.40;99.90;;;;;;6955644;28;20417;-69
2021/01/14 03:13:08;;;;;;;8.20;5.70;;;2.40;99.90;;;;;;6938478;28;20450;-69
2021/01/14 03:16:35;;;;;;;8.50;5.30;;;2.40;99.90;;;;;;6960257;28;20414;-68
2021/01/14 03:19:56;;;;;;;9.85;5.70;;;2.40;99.90;;;;;;6945528;28;20406;-68
2021/01/14 03:23:17;;;;;;;11.40;6.03;;;2.40;99.90;;;;;;6936257;28;20459;-68
2021/01/14 03:26:39;;;;;;;10.30;6.10;;;2.50;99.90;;;;;;6934778;28;20418;-68
2021/01/14 03:30:00;;;;;;;9.52;5.82;;;2.40;99.90;;;;;;6936853;28;20417;-68
2021/01/14 03:33:21;;;;;;;9.52;5.93;;;2.50;99.90;;;;;;6942583;28;20778;-68
2021/01/14 03:36:57;;;;;;;10.40;6.65;;;2.50;99.90;;;;;;6949505;28;20400;-69
2021/01/14 03:40:18;;;;;;;10.45;6.20;;;2.40;99.90;;;;;;6948020;28;20403;-68
2021/01/14 03:43:39;;;;;;;9.82;6.13;;;2.50;99.90;;;;;;6943185;28;20953;-68
2021/01/14 03:47:00;;;;;;;9.18;6.20;;;2.60;99.90;;;;;;6943313;28;20848;-69
2021/01/14 03:50:21;;;;;;;10.20;6.70;;;2.60;99.90;;;;;;6940426;28;20402;-69
2021/01/14 03:53:42;;;;;;;10.40;5.90;;;2.60;99.90;;;;;;6945470;28;20479;-69
2021/01/14 03:57:03;;;;;;;8.93;5.90;;;2.60;99.90;;;;;;6957043;28;21040;-68
2021/01/14 04:00:24;;;;;;;10.00;6.22;;;2.60;99.90;;;;;;6942511;28;20918;-68
2021/01/14 04:03:45;;;;;;;9.60;6.00;;;2.60;99.90;;;;;;6936662;28;20444;-69
2021/01/14 04:07:13;;;;;;;8.85;6.20;;;2.50;99.90;;;;;;6947035;28;20453;-69
2021/01/14 04:10:34;;;;;;;9.40;6.45;;;2.60;99.90;;;;;;6939927;28;20414;-69
2021/01/14 04:13:55;;;;;;;10.70;6.35;;;2.60;99.90;;;;;;6945118;28;20407;-68
2021/01/14 04:17:16;;;;;;;9.82;6.47;;;2.60;99.90;;;;;;6949258;28;20508;-68
2021/01/14 04:20:38;;;;;;;10.53;6.00;;;2.60;99.90;;;;;;6960351;28;20407;-68
2021/01/14 04:23:59;;;;;;;9.52;6.10;;;2.50;99.90;;;;;;6929235;28;20510;-68
2021/01/14 04:27:20;;;;;;;8.90;6.07;;;2.60;99.90;;;;;;6935653;28;20480;-68
2021/01/14 04:30:41;;;;;;;11.02;6.05;;;2.70;99.90;;;;;;6933860;28;20809;-68
2021/01/14 04:34:03;;;;;;;10.65;6.30;;;2.70;99.90;;;;;;6942530;28;20415;-68
2021/01/14 04:37:24;;;;;;;10.57;6.47;;;2.70;99.90;;;;;;6934869;28;20399;-68
2021/01/14 04:41:18;;;;;;;9.80;6.57;;;2.70;99.90;;;;;;6957483;28;20402;-68
2021/01/14 04:44:39;;;;;;;9.30;6.30;;;2.70;99.90;;;;;;6925662;28;20422;-68
2021/01/14 04:48:02;;;;;;;9.82;6.30;;;2.70;99.90;;;;;;6936653;28;20753;-68
2021/01/14 04:51:23;;;;;;;9.80;6.30;;;2.70;99.90;;;;;;6922693;28;20418;-68
2021/01/14 04:54:44;;;;;;;9.20;6.30;;;2.70;99.90;;;;;;6934332;28;20935;-68
2021/01/14 04:58:06;;;;;;;9.75;6.60;;;2.60;99.90;;;;;;6928193;28;20439;-69
2021/01/14 05:01:28;;;;;;;9.90;6.45;;;2.60;99.90;;;;;;6927949;28;20903;-68
2021/01/14 05:04:51;;;;;;;10.65;6.68;;;2.70;99.90;;;;;;6931137;28;20413;-69
2021/01/14 05:08:14;;;;;;;10.43;6.88;;;2.70;99.90;;;;;;6931932;28;20845;-69
2021/01/14 05:11:50;;;;;;;11.10;6.30;;;2.80;99.90;;;;;;6942174;28;20402;-69
2021/01/14 05:15:15;;;;;;;10.30;6.30;;;2.80;99.90;;;;;;6926029;28;20403;-68
2021/01/14 05:18:36;;;;;;;9.05;6.60;;;2.70;99.90;;;;;;6929594;28;20407;-68
2021/01/14 05:22:00;;;;;;;9.63;6.20;;;2.70;99.90;;;;;;6929636;28;20787;-68
2021/01/14 05:25:21;;;;;;;11.02;6.65;;;2.80;99.90;;;;;;6926850;28;20411;-68
2021/01/14 05:28:41;;;;;;;10.55;6.65;;;2.80;99.90;;;;;;6926086;28;20419;-67
2021/01/14 05:32:02;;;;;;;9.53;6.60;;;2.80;99.90;;;;;;6936899;28;20415;-68
2021/01/14 05:35:28;;;;;;;8.73;6.50;;;2.80;99.90;;;;;;6936448;28;20885;-68
2021/01/14 05:38:51;;;;;;;11.18;6.90;;;2.70;99.90;;;;;;6917249;28;20740;-68
2021/01/14 05:42:13;;;;;;;9.53;6.80;;;2.70;99.90;;;;;;6932023;28;20429;-68
2021/01/14 05:45:34;;;;;;;10.77;7.15;;;2.80;99.90;;;;;;6928531;28;20409;-68
2021/01/14 05:49:04;;;;;;;10.33;7.13;;;2.80;99.90;;;;;;6944951;28;20913;-68
2021/01/14 05:52:29;;;;;;;11.38;7.20;;;2.80;99.90;;;;;;6932489;28;20516;-68
2021/01/14 05:55:51;;;;;;;10.20;7.13;;;2.70;99.90;;;;;;6929383;28;20399;-69
2021/01/14 05:59:14;;;;;;;11.90;7.50;;;2.70;99.90;;;;;;6926460;28;20483;-68
2021/01/14 06:02:35;;;;;;;10.88;7.65;;;2.70;99.90;;;;;;6934519;28;20473;-68
2021/01/14 06:05:57;;;;;;;9.98;7.00;;;2.70;99.90;;;;;;6946057;28;20818;-69
2021/01/14 06:09:22;;;;;;;10.90;7.28;;;2.70;99.90;;;;;;6918150;28;20424;-69
2021/01/14 06:12:48;;;;;;;11.07;7.30;;;2.70;99.90;;;;;;6934613;28;20430;-68
2021/01/14 06:16:09;;;;;;;11.80;7.60;;;2.70;99.90;;;;;;6921947;28;20437;-69
2021/01/14 06:19:31;;;;;;;11.50;7.88;;;2.70;99.90;;;;;;6931354;28;20421;-68
2021/01/14 06:22:56;;;;;;;10.10;7.20;;;2.70;99.90;;;;;;6938019;28;20414;-68
2021/01/14 06:26:27;;;;;;;10.63;7.60;;;2.70;99.90;;;;;;6937630;28;20945;-66
2021/01/14 06:29:59;;;;;;;10.60;7.55;;;2.80;99.90;;;;;;6940444;28;20405;-66
2021/01/14 06:33:20;;;;;;;11.53;7.47;;;2.80;99.90;;;;;;6947386;28;20419;-67
2021/01/14 06:36:45;;;;;;;11.83;7.70;;;2.80;99.90;;;;;;6946139;28;21172;-68
2021/01/14 06:40:07;;;;;;;12.13;7.73;;;2.90;99.90;;;;;;6973351;28;20808;-68
2021/01/14 06:43:34;;;;;;;10.93;7.65;;;2.80;99.90;;;;;;6919791;28;20423;-68
2021/01/14 06:47:03;;;;;;;11.85;7.25;;;2.80;99.90;;;;;;6918799;28;20522;-68
2021/01/14 06:50:25;;;;;;;10.30;7.05;;;2.80;99.90;;;;;;6945512;28;20431;-69
2021/01/14 06:53:49;;;;;;;10.02;7.32;;;2.90;99.90;;;;;;6924304;28;20469;-69
2021/01/14 06:57:14;;;;;;;10.77;7.70;;;2.90;99.90;;;;;;6932646;28;20391;-69
2021/01/14 07:00:50;;;;;;;11.00;7.65;;;2.80;99.90;;;;;;6943619;28;21127;-68
2021/01/14 07:04:32;;;;;;;11.05;7.45;;;2.80;99.90;;;;;;6944695;28;20486;-68
2021/01/14 07:08:22;;;;;;;11.55;7.65;;;2.80;99.90;;;;;;6958853;28;20397;-68
2021/01/14 07:11:42;;;;;;;10.65;7.10;;;2.80;99.90;;;;;;6947970;28;20464;-68
2021/01/14 07:15:07;;;;;;;11.20;7.47;;;2.80;99.90;;;;;;6925188;28;20415;-68
2021/01/14 07:18:33;;;;;;;11.30;7.23;;;2.70;99.90;;;;;;6958308;28;20760;-68
2021/01/14 07:21:54;;;;;;;11.70;7.50;;;2.70;99.90;;;;;;6939188;28;20875;-68
2021/01/14 07:25:15;;;;;;;10.63;7.47;;;2.60;99.90;;;;;;6959555;28;20428;-68
2021/01/14 07:28:36;;;;;;;10.67;7.70;;;2.40;99.90;;;;;;6941896;28;20510;-68
2021/01/14 07:31:59;;;;;;;11.82;8.05;;;2.30;99.90;;;;;;6933997;28;20412;-68
2021/01/14 07:35:40;;;;;;;11.38;7.75;;;2.20;99.90;;;;;;6939432;28;20437;-68
2021/01/14 07:39:02;;;;;;;10.30;6.90;;;2.10;99.90;;;;;;6927498;28;20417;-68
2021/01/14 07:42:33;;;;;;;12.98;7.97;;;2.10;99.90;;;;;;6944249;28;20407;-68
2021/01/14 07:46:15;;;;;;;11.40;7.77;;;2.00;99.90;;;;;;6944031;28;20442;-68
2021/01/14 07:49:39;;;;;;;11.35;7.80;;;1.90;99.90;;;;;;6956597;28;20481;-68
2021/01/14 07:53:13;;;;;;;12.25;8.05;;;1.90;99.90;;;;;;6950962;28;20412;-68
2021/01/14 07:57:06;;;;;;;13.13;8.52;;;1.80;99.90;;;;;;6961738;28;20734;-68
2021/01/14 08:00:27;;;;;;;12.43;8.48;;;1.80;99.90;;;;;;6938100;28;20389;-68
2021/01/14 08:03:48;;;;;;;11.80;8.20;;;1.80;99.90;;;;;;6938110;28;20446;-68
2021/01/14 08:07:38;;;;;;;12.07;8.40;;;1.80;99.90;;;;;;6941988;28;20518;-68
2021/01/14 08:11:10;;;;;;;12.77;8.50;;;1.80;99.90;;;;;;6944435;28;20465;-67
2021/01/14 08:14:33;;;;;;;12.27;8.40;;;1.80;99.90;;;;;;6950290;28;20422;-68
2021/01/14 08:18:10;;;;;;;12.10;8.33;;;1.90;99.90;;;;;;6949242;28;20767;-68
2021/01/14 08:21:31;;;;;;;13.23;8.23;;;1.90;99.90;;;;;;6949567;28;20416;-68
2021/01/14 08:24:55;;;;;;;12.60;8.00;;;2.00;99.90;;;;;;6943433;28;20409;-68
2021/01/14 08:28:16;;;;;;;10.80;7.90;;;2.20;99.90;;;;;;6938641;28;20490;-68
2021/01/14 08:31:37;;;;;;;12.30;8.47;;;2.40;99.90;;;;;;6941070;28;20407;-67
2021/01/14 08:35:00;;;;;;;12.80;7.95;;;2.60;99.90;;;;;;6943674;28;20706;-67
2021/01/14 08:38:22;;;;;;;12.00;8.00;;;2.70;99.90;;;;;;6916737;28;20399;-68
2021/01/14 08:41:44;;;;;;;12.40;7.88;;;2.80;99.90;;;;;;6938331;28;20407;-68
2021/01/14 08:45:14;;;;;;;11.50;7.70;;;3.00;99.90;;;;;;6938102;28;20501;-68
2021/01/14 08:48:35;;;;;;;13.40;8.57;;;3.10;99.90;;;;;;6946961;28;20410;-67
2021/01/14 08:52:03;;;;;;;12.30;8.20;;;3.30;99.90;;;;;;6955469;28;20470;-67
2021/01/14 08:55:23;;;;;;;12.35;8.57;;;3.20;99.90;;;;;;6949184;28;20401;-67
2021/01/14 08:58:45;;;;;;;11.25;7.93;;;3.30;99.90;;;;;;6947203;28;20444;-68
2021/01/14 09:02:06;;;;;;;12.50;8.50;;;3.30;99.90;;;;;;6976171;28;20397;-67
2021/01/14 09:05:28;;;;;;;10.90;7.93;;;3.20;99.90;;;;;;6928613;28;20405;-68
2021/01/14 09:08:54;;;;;;;13.80;8.45;;;3.20;99.90;;;;;;6933171;28;20458;-69
2021/01/14 09:12:20;;;;;;;11.90;8.10;;;3.20;99.90;;;;;;6933552;28;20903;-67
2021/01/14 09:15:41;;;;;;;11.87;8.23;;;3.10;99.90;;;;;;6939788;28;21053;-68
2021/01/14 09:19:30;;;;;;;11.27;8.10;;;3.10;99.90;;;;;;6955827;28;20391;-67
2021/01/14 09:22:52;;;;;;;11.93;8.00;;;3.10;99.90;;;;;;6919322;28;20590;-67
2021/01/14 09:26:14;;;;;;;11.13;7.50;;;3.10;99.90;;;;;;6927421;28;21003;-68
2021/01/14 09:29:35;;;;;;;11.20;7.70;;;3.10;99.90;;;;;;6953798;28;20405;-68
2021/01/14 09:32:59;;;;;;;11.88;7.57;;;3.10;99.90;;;;;;6941832;28;20403;-67
2021/01/14 09:36:23;;;;;;;11.30;7.70;;;3.00;99.90;;;;;;6930644;28;20411;-67
2021/01/14 09:39:47;;;;;;;12.40;7.70;;;3.20;99.90;;;;;;6939020;28;20895;-68
2021/01/14 09:43:08;;;;;;;11.57;7.70;;;3.10;99.90;;;;;;6920290;28;21228;-68
2021/01/14 09:46:36;;;;;;;12.60;7.90;;;3.00;99.90;;;;;;6939632;28;20403;-69
2021/01/14 09:49:57;;;;;;;11.70;7.57;;;3.10;99.90;;;;;;6938068;28;20895;-69
2021/01/14 09:53:18;;;;;;;10.87;7.70;;;3.10;99.90;;;;;;6938516;28;20420;-69
2021/01/14 09:56:43;;;;;;;12.63;7.50;;;3.20;99.90;;;;;;6934639;28;20414;-69
2021/01/14 10:00:06;;;;;;;11.70;7.43;;;3.20;99.90;;;;;;6915276;28;20431;-69
2021/01/14 10:03:31;;;;;;;12.18;7.72;;;3.30;99.90;;;;;;6949336;28;20393;-68
2021/01/14 10:07:02;;;;;;;12.17;7.67;;;3.40;99.90;;;;;;6948930;28;20403;-68
2021/01/14 10:10:23;;;;;;;12.15;7.57;;;3.40;99.90;;;;;;6933569;28;20414;-69
2021/01/14 10:13:51;;;;;;;10.50;7.50;;;3.50;99.90;;;;;;6922833;28;20413;-68
2021/01/14 10:17:16;;;;;;;11.95;7.90;;;3.50;99.90;;;;;;6924552;28;20398;-68
2021/01/14 10:20:37;;;;;;;10.57;7.40;;;3.50;99.90;;;;;;6934332;28;20411;-67
2021/01/14 10:23:58;;;;;;;11.10;7.88;;;3.60;99.90;;;;;;6939797;28;20886;-70
2021/01/14 10:27:21;;;;;;;12.63;8.90;;;3.60;99.90;;;;;;6920965;28;20414;-68
2021/01/14 10:30:42;;;;;;;11.25;7.82;;;3.60;99.90;;;;;;6922140;28;20403;-69
2021/01/14 10:34:04;;;;;;;11.90;8.30;;;3.50;99.90;;;;;;6924830;28;20471;-69
2021/01/14 10:37:33;;;;;;;12.70;7.80;;;3.50;99.90;;;;;;6935230;28;20731;-69
2021/01/14 10:40:56;;;;;;;13.27;8.18;;;3.50;99.90;;;;;;6941256;28;20737;-68
2021/01/14 10:44:17;;;;;;;12.52;8.15;;;3.60;99.90;;;;;;6944296;28;20407;-68
2021/01/14 10:47:41;;;;;;;14.02;8.50;;;3.60;99.90;;;;;;6946819;28;20824;-68
2021/01/14 10:51:02;;;;;;;12.70;8.27;;;3.50;99.90;;;;;;6946079;28;20449;-67
2021/01/14 10:54:23;;;;;;;13.00;8.10;;;3.50;99.90;;;;;;6961032;28;20420;-68
2021/01/14 10:57:55;;;;;;;11.70;7.80;;;3.60;99.90;;;;;;6948275;28;20476;-68
2021/01/14 11:01:17;;;;;;;11.18;7.93;;;3.60;99.90;;;;;;6964984;28;20401;-67
2021/01/14 11:04:38;;;;;;;10.90;7.80;;;3.60;99.90;;;;;;6951695;28;20413;-68
2021/01/14 11:08:12;;;;;;;10.93;8.10;;;3.50;99.90;;;;;;6942637;28;20988;-67
2021/01/14 11:11:36;;;;;;;11.95;8.30;;;3.50;99.90;;;;;;6957732;28;20746;-67
2021/01/14 11:14:58;;;;;;;11.02;7.70;;;3.50;99.90;;;;;;6950014;28;20903;-67
2021/01/14 11:18:19;;;;;;;11.15;7.68;;;3.50;99.90;;;;;;6925029;28;20406;-68
2021/01/14 11:21:42;;;;;;;10.47;7.70;;;3.50;99.90;;;;;;6946238;28;20422;-68
2021/01/14 11:25:03;;;;;;;10.00;7.60;;;3.40;99.90;;;;;;6946427;28;20409;-68
2021/01/14 11:28:24;;;;;;;11.70;8.27;;;3.40;99.90;;;;;;6944705;28;20442;-68
2021/01/14 11:31:44;;;;;;;12.60;8.35;;;3.40;99.90;;;;;;6947717;28;20924;-68
2021/01/14 11:35:06;;;;;;;12.30;8.25;;;3.50;99.90;;;;;;6943430;28;20414;-68
2021/01/14 11:38:27;;;;;;;12.15;8.02;;;3.40;99.90;;;;;;6934143;28;20405;-68
2021/01/14 11:41:52;;;;;;;10.82;8.10;;;3.40;99.90;;;;;;6944029;28;20444;-68
2021/01/14 11:45:13;;;;;;;11.70;7.80;;;3.50;99.90;;;;;;6960992;28;20395;-68
2021/01/14 11:48:34;;;;;;;11.00;7.50;;;3.40;99.90;;;;;;6937441;28;20924;-68
2021/01/14 11:51:55;;;;;;;13.82;8.70;;;3.40;99.90;;;;;;6922932;28;20419;-68
2021/01/14 11:55:16;;;;;;;12.20;8.50;;;3.40;99.90;;;;;;6957822;28;20414;-68
2021/01/14 11:58:37;;;;;;;11.57;8.10;;;3.40;99.90;;;;;;6946658;28;20402;-67
2021/01/14 12:01:58;;;;;;;11.80;8.60;;;3.40;99.90;;;;;;6928819;28;20393;-67
2021/01/14 12:05:19;;;;;;;13.80;8.60;;;3.40;99.90;;;;;;6923671;28;20526;-67
2021/01/14 12:08:40;;;;;;;12.70;9.10;;;3.40;99.90;;;;;;6943697;28;20442;-67
2021/01/14 12:12:00;;;;;;;12.60;8.90;;;3.50;99.90;;;;;;6949083;28;20415;-67
2021/01/14 12:15:21;;;;;;;13.55;9.00;;;3.50;99.90;;;;;;6941011;28;20399;-67
2021/01/14 12:18:42;;;;;;;13.38;8.90;;;3.40;99.90;;;;;;6948007;28;20411;-68
2021/01/14 12:22:04;;;;;;;10.80;8.20;;;3.40;99.90;;;;;;6928245;28;20417;-67
2021/01/14 12:25:25;;;;;;;11.95;8.68;;;3.50;99.90;;;;;;6928517;28;20553;-67
2021/01/14 12:28:47;;;;;;;13.80;8.40;;;3.40;99.90;;;;;;6932543;28;20401;-67
2021/01/14 12:32:08;;;;;;;12.02;7.90;;;3.50;99.90;;;;;;6931580;28;20419;-67
2021/01/14 12:35:29;;;;;;;13.02;8.75;;;3.50;99.90;;;;;;6939855;28;20413;-67
2021/01/14 12:38:50;;;;;;;11.88;8.70;;;3.50;99.90;;;;;;6922155;28;20788;-68
2021/01/14 12:42:11;;;;;;;13.10;8.80;;;3.50;99.90;;;;;;6929567;28;20402;-68
2021/01/14 12:45:32;;;;;;;12.77;8.40;;;3.40;99.90;;;;;;6931858;28;21002;-67
2021/01/14 12:48:54;;;;;;;15.52;9.43;;;3.40;99.90;;;;;;6923038;28;20844;-67
2021/01/14 12:52:15;;;;;;;13.98;9.20;;;3.40;99.90;;;;;;6922808;28;20561;-68
2021/01/14 12:55:36;;;;;;;13.27;9.07;;;3.40;99.90;;;;;;6931098;28;20527;-68
2021/01/14 12:58:57;;;;;;;14.45;9.02;;;3.40;99.90;;;;;;6945554;28;20401;-67
2021/01/14 13:02:18;;;;;;;13.00;9.17;;;3.30;99.90;;;;;;6934317;28;20411;-72
2021/01/14 13:05:44;;;;;;;14.70;9.37;;;3.30;99.90;;;;;;6931112;28;20443;-72
2021/01/14 13:09:07;;;;;;;12.05;8.70;;;3.30;99.90;;;;;;6931384;28;20486;-72
2021/01/14 13:12:27;;;;;;;13.25;8.70;;;3.30;99.90;;;;;;6948975;28;20721;-72
2021/01/14 13:15:52;;;;;;;12.43;8.50;;;3.30;99.90;;;;;;6942879;28;20417;-68
2021/01/14 13:19:13;;;;;;;12.07;8.87;;;3.20;99.90;;;;;;6910321;28;20865;-67
2021/01/14 13:22:34;;;;;;;13.30;9.00;;;3.30;99.90;;;;;;6931556;28;20403;-68
2021/01/14 13:25:55;;;;;;;13.20;8.70;;;3.30;99.90;;;;;;6944319;28;20402;-67
2021/01/14 13:29:15;;;;;;;11.90;8.57;;;3.40;99.90;;;;;;6952415;28;20429;-68
2021/01/14 13:32:36;;;;;;;11.75;8.85;;;3.40;99.90;;;;;;6927374;28;20446;-68
2021/01/14 13:35:59;;;;;;;13.00;8.90;;;3.40;99.90;;;;;;6938595;28;20520;-67
2021/01/14 13:39:20;;;;;;;11.77;9.10;;;3.50;99.90;;;;;;6958302;28;20399;-68
2021/01/14 13:42:41;;;;;;;12.32;8.90;;;3.50;99.90;;;;;;6943397;28;20401;-68
2021/01/14 13:46:03;;;;;;;12.20;8.80;;;3.40;99.90;;;;;;6921657;28;20422;-68
2021/01/14 13:49:24;;;;;;;13.70;9.57;;;3.60;99.90;;;;;;6935388;28;20486;-68
2021/01/14 13:52:44;;;;;;;14.33;9.07;;;3.60;99.90;;;;;;6942710;28;20422;-68
2021/01/14 13:56:05;;;;;;;11.07;8.55;;;3.60;99.90;;;;;;6924508;28;20423;-69
2021/01/14 13:59:27;;;;;;;13.75;10.00;;;3.50;99.90;;;;;;6927749;28;20438;-68
2021/01/14 14:02:48;;;;;;;11.57;9.07;;;3.50;99.90;;;;;;6934842;28;20423;-69
2021/01/14 14:06:09;;;;;;;13.50;9.02;;;3.50;99.90;;;;;;6936467;28;20435;-68
2021/01/14 14:09:29;;;;;;;13.10;8.97;;;3.50;99.90;;;;;;6946753;28;20418;-67
2021/01/14 14:12:50;;;;;;;11.00;8.30;;;3.50;99.90;;;;;;6939452;28;20419;-69
2021/01/14 14:16:15;;;;;;;13.20;8.63;;;3.60;99.90;;;;;;6933504;28;20477;-69
2021/01/14 14:19:36;;;;;;;11.25;8.85;;;3.50;99.90;;;;;;6929125;28;20416;-68
2021/01/14 14:23:00;;;;;;;12.23;8.80;;;3.50;99.90;;;;;;6949821;28;20422;-68
2021/01/14 14:26:33;;;;;;;14.70;9.60;;;3.50;99.90;;;;;;6935055;28;20950;-68
2021/01/14 14:29:54;;;;;;;13.18;9.10;;;3.50;99.90;;;;;;6954960;28;20748;-68
2021/01/14 14:33:15;;;;;;;13.27;8.88;;;3.50;99.90;;;;;;6928722;28;20423;-68
2021/01/14 14:36:37;;;;;;;13.27;9.38;;;3.50;99.90;;;;;;6940915;28;20499;-69
2021/01/14 14:39:58;;;;;;;12.43;9.15;;;3.50;99.90;;;;;;6927922;28;20433;-69
2021/01/14 14:43:19;;;;;;;13.48;9.02;;;3.40;99.90;;;;;;6932427;28;20898;-69
2021/01/14 14:46:39;;;;;;;11.55;9.10;;;3.50;99.90;;;;;;6930760;28;20489;-68
2021/01/14 14:50:00;;;;;;;13.50;9.85;;;3.50;99.90;;;;;;6932685;28;20414;-67
2021/01/14 14:53:22;;;;;;;12.85;9.95;;;3.50;99.90;;;;;;6950872;28;20941;-69
2021/01/14 14:56:43;;;;;;;13.83;9.63;;;3.40;99.90;;;;;;6937581;28;20529;-68
2021/01/14 15:00:04;;;;;;;14.83;10.50;;;3.40;99.90;;;;;;6948310;28;20490;-69
2021/01/14 15:03:25;;;;;;;14.32;10.43;;;3.30;99.90;;;;;;6943340;28;20413;-68
2021/01/14 15:06:51;;;;;;;13.63;10.30;;;3.30;99.90;;;;;;6933356;28;20438;-68
2021/01/14 15:10:12;;;;;;;16.07;9.90;;;3.30;99.90;;;;;;6944562;28;20517;-69
2021/01/14 15:13:33;;;;;;;13.82;9.48;;;3.20;99.90;;;;;;6954696;28;20501;-69
2021/01/14 15:16:54;;;;;;;13.10;9.50;;;3.20;99.90;;;;;;6939661;28;20395;-68
2021/01/14 15:20:15;;;;;;;12.63;9.50;;;3.20;99.90;;;;;;6940467;28;20430;-68
2021/01/14 15:23:36;;;;;;;12.87;9.30;;;3.10;99.90;;;;;;6945095;28;20513;-68
2021/01/14 15:26:57;;;;;;;12.82;9.70;;;3.20;99.90;;;;;;6926635;28;21201;-68
2021/01/14 15:30:19;;;;;;;14.40;9.93;;;3.10;99.90;;;;;;6942991;28;20409;-69
2021/01/14 15:33:40;;;;;;;13.30;9.67;;;3.10;99.90;;;;;;6947969;28;20494;-68
2021/01/14 15:37:01;;;;;;;12.37;9.53;;;3.20;99.90;;;;;;6938104;28;20893;-68
2021/01/14 15:40:24;;;;;;;13.07;9.40;;;3.10;99.90;;;;;;6937938;28;20509;-68
2021/01/14 15:43:47;;;;;;;13.52;9.90;;;3.10;99.90;;;;;;6930544;28;20420;-69
2021/01/14 15:47:08;;;;;;;13.13;10.00;;;3.00;99.90;;;;;;6950756;28;20434;-68
2021/01/14 15:50:29;;;;;;;13.57;9.43;;;3.00;99.90;;;;;;6939490;28;20422;-68
2021/01/14 15:54:00;;;;;;;14.70;10.00;;;3.00;99.90;;;;;;6921957;28;20416;-67
2021/01/14 15:57:21;;;;;;;13.65;9.75;;;3.00;99.90;;;;;;6922194;28;20780;-70
2021/01/14 16:00:42;;;;;;;13.68;9.95;;;3.00;99.90;;;;;;6930005;28;20387;-69
2021/01/14 16:04:03;;;;;;;13.43;9.40;;;3.00;99.90;;;;;;6941957;28;20502;-69
2021/01/14 16:07:24;;;;;;;14.40;9.35;;;3.00;99.90;;;;;;6926046;28;20958;-71
2021/01/14 16:10:44;;;;;;;13.05;9.55;;;3.10;99.90;;;;;;6922182;28;20968;-69
2021/01/14 16:14:05;;;;;;;12.65;9.60;;;3.10;99.90;;;;;;6925078;28;20406;-69
2021/01/14 16:17:26;;;;;;;14.00;9.57;;;3.00;99.90;;;;;;6922065;28;20395;-68
2021/01/14 16:20:53;;;;;;;13.40;9.40;;;3.00;99.90;;;;;;6929245;28;20422;-68
2021/01/14 16:24:15;;;;;;;12.35;9.45;;;3.00;99.90;;;;;;6931741;28;20405;-74
2021/01/14 16:27:36;;;;;;;13.77;9.48;;;2.90;99.90;;;;;;6949806;28;20764;-68
2021/01/14 16:30:57;;;;;;;12.75;9.60;;;2.90;99.90;;;;;;6933803;28;20929;-68
2021/01/14 16:34:19;;;;;;;15.88;9.77;;;2.90;99.90;;;;;;6941464;28;20417;-69
2021/01/14 16:37:40;;;;;;;14.45;10.00;;;2.90;99.90;;;;;;6935749;28;20452;-68
2021/01/14 16:41:02;;;;;;;13.20;9.97;;;2.90;99.90;;;;;;6933298;28;20407;-69
2021/01/14 16:44:24;;;;;;;15.90;10.02;;;2.90;99.90;;;;;;6937671;28;20415;-69
2021/01/14 16:47:45;;;;;;;13.20;10.10;;;3.00;99.90;;;;;;6937048;28;20421;-68
2021/01/14 16:51:06;;;;;;;14.73;10.80;;;2.90;99.90;;;;;;6929833;28;21036;-69
2021/01/14 16:54:27;;;;;;;15.10;10.30;;;2.90;99.90;;;;;;6929507;28;20419;-68
2021/01/14 16:57:48;;;;;;;14.80;9.60;;;2.90;99.90;;;;;;6918372;28;21136;-69
2021/01/14 17:01:11;;;;;;;14.73;10.27;;;2.90;99.90;;;;;;6948826;28;20432;-69
2021/01/14 17:04:32;;;;;;;15.20;10.07;;;2.90;99.90;;;;;;6937149;28;20480;-68
2021/01/14 17:07:53;;;;;;;15.23;11.23;;;3.00;99.90;;;;;;6931572;28;20417;-68
2021/01/14 17:11:22;;;;;;;14.63;10.23;;;3.00;99.90;;;;;;6943234;28;20737;-69
2021/01/14 17:14:43;;;;;;;15.70;10.83;;;2.90;99.90;;;;;;6927392;28;21064;-69
2021/01/14 17:18:04;;;;;;;16.10;10.50;;;2.90;99.90;;;;;;6951718;28;20438;-68
2021/01/14 17:21:26;;;;;;;14.93;10.48;;;2.90;99.90;;;;;;6952539;28;20502;-68
2021/01/14 17:24:47;;;;;;;17.07;12.17;;;2.90;99.90;;;;;;6920070;28;20423;-68
2021/01/14 17:28:09;;;;;;;15.70;10.93;;;2.90;99.90;;;;;;6927583;28;20403;-69
2021/01/14 17:31:31;;;;;;;15.00;11.50;;;2.90;99.90;;;;;;6924883;28;20418;-69
2021/01/14 17:34:52;;;;;;;15.63;11.38;;;2.90;99.90;;;;;;6915015;28;20411;-68
2021/01/14 17:38:13;;;;;;;17.90;13.45;;;3.00;99.90;;;;;;6913480;28;20422;-69